OSLK1: Labette Creek nr Oswego Ks

Data processed at Sun Apr 30 2017 22:13


All information presented herein is the property of the government of the United States of America and may be revised or deleted at any time without prior notice.
Dissemination of this information without the expressed written consent of the Public Affairs Office, Tulsa District U.S. Army Corps of Engineers is strictly prohibited.
These data are gathered electronically and, as presented, have not undergone any form of quality control. These data are not guaranteed to be valid or correct.
Go to home page.
Go to station list.
Go to station map.

Downstream station:


Previous Day
Next Day
Current Day
    
SHEF ID:       OSLK1     LABETTE C NR OSWEGO, KS
STATION TYPE:  

               PRECIP     STAGE  RIV-FLOW  BAT-LOAD
                   in        ft       cfs      volt
              Ccp-Rev   Ccp-Rev   Ccp-Rev   Ccp-Rev
(US/Central)
04/30 00:00      0.01     23.29      6750     12.17
04/30 01:00      0.20     23.61      6900     12.25
04/30 02:00      0.00     23.85      7010     12.25
04/30 03:00      0.01     24.02      7090     12.25
04/30 04:00      0.00     24.11      7130     12.25
04/30 05:00      0.03     24.14      7150     12.17
04/30 06:00      0.07     24.13      7140     12.25
04/30 07:00      0.00     24.09      7120     12.17
04/30 08:00      0.00     24.04      7100     12.17
04/30 09:00      0.00     23.98      7070     12.17
04/30 10:00      0.00     23.97      7070     12.09
04/30 11:00      0.00     23.95      7060     12.41
04/30 12:00      0.00     23.98      7070     12.65
04/30 13:00      0.00     24.02      7090     12.89
04/30 14:00      0.00     24.08      7120     13.13
04/30 15:00      0.00     24.18      7160     13.05
04/30 16:00      0.00     24.30      7220     13.21
04/30 17:00      0.00     24.48      7310     13.29
04/30 18:00      0.00     24.64      7380     12.65
04/30 19:00      0.01     24.78      7450     12.65
04/30 20:00      0.00     24.88      7490     12.57
04/30 21:00      0.00     24.95      7530     12.49
04/30 22:00      ----     24.99      7550     12.49
04/30 23:00      ----      ----      ----      ----